sensor_id;sensor_type;location;lat;lon;timestamp;P1;durP1;ratioP1;P2;durP2;ratioP2
65210;SDS011;51794;52.758;55.792;2023-02-11T00:00:09;21.27;;;4.97;;
65210;SDS011;51794;52.758;55.792;2023-02-11T00:02:36;23.02;;;4.63;;
65210;SDS011;51794;52.758;55.792;2023-02-11T00:05:02;37.85;;;5.32;;
65210;SDS011;51794;52.758;55.792;2023-02-11T00:07:29;24.40;;;4.60;;
65210;SDS011;51794;52.758;55.792;2023-02-11T00:09:56;19.20;;;4.20;;
65210;SDS011;51794;52.758;55.792;2023-02-11T00:12:22;22.58;;;4.53;;
65210;SDS011;51794;52.758;55.792;2023-02-11T00:14:48;21.13;;;4.57;;
65210;SDS011;51794;52.758;55.792;2023-02-11T00:17:14;8.90;;;4.40;;
65210;SDS011;51794;52.758;55.792;2023-02-11T00:19:40;16.73;;;4.40;;
65210;SDS011;51794;52.758;55.792;2023-02-11T00:22:06;16.40;;;4.28;;
65210;SDS011;51794;52.758;55.792;2023-02-11T00:24:32;73.93;;;7.00;;
65210;SDS011;51794;52.758;55.792;2023-02-11T00:26:58;18.42;;;3.28;;
65210;SDS011;51794;52.758;55.792;2023-02-11T00:29:24;15.55;;;4.00;;
65210;SDS011;51794;52.758;55.792;2023-02-11T00:31:50;24.23;;;4.97;;
65210;SDS011;51794;52.758;55.792;2023-02-11T00:34:16;20.75;;;5.38;;
65210;SDS011;51794;52.758;55.792;2023-02-11T00:36:42;6.38;;;2.60;;
65210;SDS011;51794;52.758;55.792;2023-02-11T00:39:07;36.20;;;4.38;;
65210;SDS011;51794;52.758;55.792;2023-02-11T00:41:33;25.00;;;4.85;;
65210;SDS011;51794;52.758;55.792;2023-02-11T00:44:00;32.67;;;5.40;;
65210;SDS011;51794;52.758;55.792;2023-02-11T00:46:27;8.98;;;4.63;;
65210;SDS011;51794;52.758;55.792;2023-02-11T00:48:53;15.35;;;4.10;;
65210;SDS011;51794;52.758;55.792;2023-02-11T00:51:23;14.93;;;4.55;;
65210;SDS011;51794;52.758;55.792;2023-02-11T00:53:49;11.95;;;4.13;;
65210;SDS011;51794;52.758;55.792;2023-02-11T00:56:15;23.27;;;5.05;;
65210;SDS011;51794;52.758;55.792;2023-02-11T00:58:42;53.83;;;5.97;;
65210;SDS011;51794;52.758;55.792;2023-02-11T01:01:07;26.73;;;4.53;;
65210;SDS011;51794;52.758;55.792;2023-02-11T01:03:33;30.48;;;4.88;;
65210;SDS011;51794;52.758;55.792;2023-02-11T01:05:59;13.73;;;4.63;;
65210;SDS011;51794;52.758;55.792;2023-02-11T01:08:25;14.20;;;3.50;;
65210;SDS011;51794;52.758;55.792;2023-02-11T01:10:58;12.77;;;3.95;;
65210;SDS011;51794;52.758;55.792;2023-02-11T01:13:30;11.88;;;3.30;;
65210;SDS011;51794;52.758;55.792;2023-02-11T01:15:58;12.32;;;2.67;;
65210;SDS011;51794;52.758;55.792;2023-02-11T01:18:24;20.63;;;3.35;;
65210;SDS011;51794;52.758;55.792;2023-02-11T01:20:51;20.38;;;2.90;;
65210;SDS011;51794;52.758;55.792;2023-02-11T01:23:17;11.93;;;3.33;;
65210;SDS011;51794;52.758;55.792;2023-02-11T01:25:44;33.33;;;3.80;;
65210;SDS011;51794;52.758;55.792;2023-02-11T01:28:15;41.33;;;4.55;;
65210;SDS011;51794;52.758;55.792;2023-02-11T01:30:45;27.38;;;3.97;;
65210;SDS011;51794;52.758;55.792;2023-02-11T01:33:11;34.10;;;4.45;;
65210;SDS011;51794;52.758;55.792;2023-02-11T01:35:38;17.08;;;3.47;;
65210;SDS011;51794;52.758;55.792;2023-02-11T01:38:05;18.77;;;4.82;;
65210;SDS011;51794;52.758;55.792;2023-02-11T01:40:32;10.82;;;4.90;;
65210;SDS011;51794;52.758;55.792;2023-02-11T01:42:58;12.40;;;5.05;;
65210;SDS011;51794;52.758;55.792;2023-02-11T01:48:09;10.00;;;5.40;;
65210;SDS011;51794;52.758;55.792;2023-02-11T01:51:02;12.27;;;5.03;;
65210;SDS011;51794;52.758;55.792;2023-02-11T01:53:31;11.20;;;5.72;;
65210;SDS011;51794;52.758;55.792;2023-02-11T01:56:17;10.98;;;5.20;;
65210;SDS011;51794;52.758;55.792;2023-02-11T01:59:04;10.00;;;5.20;;
65210;SDS011;51794;52.758;55.792;2023-02-11T02:01:37;9.05;;;5.15;;
65210;SDS011;51794;52.758;55.792;2023-02-11T02:04:07;9.02;;;4.88;;
65210;SDS011;51794;52.758;55.792;2023-02-11T02:06:37;12.32;;;5.53;;
65210;SDS011;51794;52.758;55.792;2023-02-11T02:09:10;12.95;;;6.15;;
65210;SDS011;51794;52.758;55.792;2023-02-11T02:11:43;11.85;;;6.30;;
65210;SDS011;51794;52.758;55.792;2023-02-11T02:14:09;12.30;;;6.70;;
65210;SDS011;51794;52.758;55.792;2023-02-11T02:16:35;12.88;;;6.35;;
65210;SDS011;51794;52.758;55.792;2023-02-11T02:27:33;14.15;;;5.65;;
65210;SDS011;51794;52.758;55.792;2023-02-11T02:36:21;23.45;;;4.65;;
65210;SDS011;51794;52.758;55.792;2023-02-11T02:38:56;39.53;;;6.25;;
65210;SDS011;51794;52.758;55.792;2023-02-11T02:41:31;15.23;;;5.22;;
65210;SDS011;51794;52.758;55.792;2023-02-11T02:43:59;13.77;;;5.38;;
65210;SDS011;51794;52.758;55.792;2023-02-11T02:46:27;13.55;;;5.07;;
65210;SDS011;51794;52.758;55.792;2023-02-11T02:48:55;16.90;;;6.82;;
65210;SDS011;51794;52.758;55.792;2023-02-11T03:00:10;10.52;;;4.72;;
65210;SDS011;51794;52.758;55.792;2023-02-11T03:02:58;12.75;;;5.03;;
65210;SDS011;51794;52.758;55.792;2023-02-11T03:10:49;13.40;;;5.70;;
65210;SDS011;51794;52.758;55.792;2023-02-11T03:13:17;11.40;;;5.25;;
65210;SDS011;51794;52.758;55.792;2023-02-11T03:15:48;22.95;;;6.38;;
65210;SDS011;51794;52.758;55.792;2023-02-11T03:18:18;10.32;;;4.25;;
65210;SDS011;51794;52.758;55.792;2023-02-11T03:20:49;11.65;;;5.25;;
65210;SDS011;51794;52.758;55.792;2023-02-11T03:23:28;15.77;;;5.05;;
65210;SDS011;51794;52.758;55.792;2023-02-11T03:26:14;12.00;;;5.72;;
65210;SDS011;51794;52.758;55.792;2023-02-11T03:28:50;13.02;;;5.40;;
65210;SDS011;51794;52.758;55.792;2023-02-11T03:31:33;17.17;;;4.35;;
65210;SDS011;51794;52.758;55.792;2023-02-11T03:34:07;12.27;;;4.63;;
65210;SDS011;51794;52.758;55.792;2023-02-11T03:36:43;21.38;;;5.68;;
65210;SDS011;51794;52.758;55.792;2023-02-11T03:39:17;10.65;;;4.03;;
65210;SDS011;51794;52.758;55.792;2023-02-11T03:41:47;17.33;;;4.40;;
65210;SDS011;51794;52.758;55.792;2023-02-11T03:44:14;12.05;;;3.67;;
65210;SDS011;51794;52.758;55.792;2023-02-11T03:46:42;12.57;;;4.88;;
65210;SDS011;51794;52.758;55.792;2023-02-11T03:49:13;14.65;;;5.32;;
65210;SDS011;51794;52.758;55.792;2023-02-11T03:51:44;16.45;;;3.95;;
65210;SDS011;51794;52.758;55.792;2023-02-11T03:54:14;9.95;;;3.85;;
65210;SDS011;51794;52.758;55.792;2023-02-11T03:56:48;12.52;;;4.28;;
65210;SDS011;51794;52.758;55.792;2023-02-11T03:59:17;8.65;;;3.88;;
65210;SDS011;51794;52.758;55.792;2023-02-11T04:01:43;7.32;;;3.33;;
65210;SDS011;51794;52.758;55.792;2023-02-11T04:04:09;9.82;;;3.42;;
65210;SDS011;51794;52.758;55.792;2023-02-11T04:06:35;7.40;;;3.90;;
65210;SDS011;51794;52.758;55.792;2023-02-11T04:09:01;6.32;;;3.00;;
65210;SDS011;51794;52.758;55.792;2023-02-11T04:11:28;6.75;;;2.95;;
65210;SDS011;51794;52.758;55.792;2023-02-11T04:13:53;7.13;;;3.00;;
65210;SDS011;51794;52.758;55.792;2023-02-11T04:16:19;7.60;;;3.13;;
65210;SDS011;51794;52.758;55.792;2023-02-11T04:18:46;8.30;;;3.17;;
65210;SDS011;51794;52.758;55.792;2023-02-11T04:21:12;5.28;;;2.45;;
65210;SDS011;51794;52.758;55.792;2023-02-11T04:23:38;6.80;;;3.28;;
65210;SDS011;51794;52.758;55.792;2023-02-11T04:26:04;6.60;;;3.40;;
65210;SDS011;51794;52.758;55.792;2023-02-11T04:28:30;6.05;;;3.15;;
65210;SDS011;51794;52.758;55.792;2023-02-11T04:30:56;5.07;;;2.55;;
65210;SDS011;51794;52.758;55.792;2023-02-11T04:33:23;6.65;;;2.85;;
65210;SDS011;51794;52.758;55.792;2023-02-11T04:35:49;5.35;;;2.80;;
65210;SDS011;51794;52.758;55.792;2023-02-11T04:38:15;5.20;;;2.58;;
65210;SDS011;51794;52.758;55.792;2023-02-11T04:40:41;4.32;;;2.40;;
65210;SDS011;51794;52.758;55.792;2023-02-11T04:43:07;5.55;;;2.53;;
65210;SDS011;51794;52.758;55.792;2023-02-11T04:45:33;3.40;;;1.73;;
65210;SDS011;51794;52.758;55.792;2023-02-11T04:48:00;4.68;;;2.13;;
65210;SDS011;51794;52.758;55.792;2023-02-11T04:50:27;4.70;;;1.52;;
65210;SDS011;51794;52.758;55.792;2023-02-11T04:52:53;2.70;;;1.33;;
65210;SDS011;51794;52.758;55.792;2023-02-11T04:55:19;2.65;;;1.30;;
65210;SDS011;51794;52.758;55.792;2023-02-11T04:57:45;4.35;;;1.60;;
65210;SDS011;51794;52.758;55.792;2023-02-11T05:00:11;5.68;;;2.40;;
65210;SDS011;51794;52.758;55.792;2023-02-11T05:02:38;4.72;;;2.13;;
65210;SDS011;51794;52.758;55.792;2023-02-11T05:05:04;3.13;;;2.33;;
65210;SDS011;51794;52.758;55.792;2023-02-11T05:07:30;3.95;;;1.58;;
65210;SDS011;51794;52.758;55.792;2023-02-11T05:09:56;3.28;;;2.10;;
65210;SDS011;51794;52.758;55.792;2023-02-11T05:12:22;3.53;;;1.98;;
65210;SDS011;51794;52.758;55.792;2023-02-11T05:14:48;2.35;;;1.83;;
65210;SDS011;51794;52.758;55.792;2023-02-11T05:17:14;2.85;;;1.75;;
65210;SDS011;51794;52.758;55.792;2023-02-11T05:19:40;4.15;;;2.30;;
65210;SDS011;51794;52.758;55.792;2023-02-11T05:22:06;3.78;;;2.15;;
65210;SDS011;51794;52.758;55.792;2023-02-11T05:24:32;5.53;;;3.00;;
65210;SDS011;51794;52.758;55.792;2023-02-11T05:26:59;3.25;;;2.08;;
65210;SDS011;51794;52.758;55.792;2023-02-11T05:29:26;4.28;;;2.78;;
65210;SDS011;51794;52.758;55.792;2023-02-11T05:31:52;4.57;;;2.50;;
65210;SDS011;51794;52.758;55.792;2023-02-11T05:34:18;5.60;;;2.85;;
65210;SDS011;51794;52.758;55.792;2023-02-11T05:36:44;5.07;;;2.83;;
65210;SDS011;51794;52.758;55.792;2023-02-11T05:39:10;4.03;;;2.20;;
65210;SDS011;51794;52.758;55.792;2023-02-11T05:41:36;4.10;;;2.63;;
65210;SDS011;51794;52.758;55.792;2023-02-11T05:44:02;3.63;;;1.80;;
65210;SDS011;51794;52.758;55.792;2023-02-11T05:46:28;3.78;;;2.28;;
65210;SDS011;51794;52.758;55.792;2023-02-11T05:48:54;5.30;;;2.70;;
65210;SDS011;51794;52.758;55.792;2023-02-11T05:51:23;5.15;;;2.83;;
65210;SDS011;51794;52.758;55.792;2023-02-11T05:53:49;5.65;;;3.50;;
65210;SDS011;51794;52.758;55.792;2023-02-11T05:56:15;4.22;;;2.88;;
65210;SDS011;51794;52.758;55.792;2023-02-11T05:58:41;6.47;;;3.30;;
65210;SDS011;51794;52.758;55.792;2023-02-11T06:01:07;7.28;;;3.50;;
65210;SDS011;51794;52.758;55.792;2023-02-11T06:03:33;6.07;;;3.00;;
65210;SDS011;51794;52.758;55.792;2023-02-11T06:05:59;6.88;;;3.22;;
65210;SDS011;51794;52.758;55.792;2023-02-11T06:08:25;5.15;;;3.05;;
65210;SDS011;51794;52.758;55.792;2023-02-11T06:10:50;6.70;;;3.28;;
65210;SDS011;51794;52.758;55.792;2023-02-11T06:13:16;7.18;;;3.42;;
65210;SDS011;51794;52.758;55.792;2023-02-11T06:15:44;7.55;;;3.45;;
65210;SDS011;51794;52.758;55.792;2023-02-11T06:18:10;7.22;;;3.75;;
65210;SDS011;51794;52.758;55.792;2023-02-11T06:20:36;4.95;;;3.05;;
65210;SDS011;51794;52.758;55.792;2023-02-11T06:23:05;8.27;;;4.30;;
65210;SDS011;51794;52.758;55.792;2023-02-11T06:25:31;8.68;;;4.60;;
65210;SDS011;51794;52.758;55.792;2023-02-11T06:27:57;10.25;;;4.88;;
65210;SDS011;51794;52.758;55.792;2023-02-11T06:30:23;10.45;;;5.32;;
65210;SDS011;51794;52.758;55.792;2023-02-11T06:32:49;9.07;;;4.78;;
65210;SDS011;51794;52.758;55.792;2023-02-11T06:35:15;9.30;;;5.10;;
65210;SDS011;51794;52.758;55.792;2023-02-11T06:37:41;9.57;;;4.80;;
65210;SDS011;51794;52.758;55.792;2023-02-11T06:40:08;9.43;;;4.80;;
65210;SDS011;51794;52.758;55.792;2023-02-11T06:42:35;9.93;;;5.43;;
65210;SDS011;51794;52.758;55.792;2023-02-11T06:45:03;10.85;;;6.25;;
65210;SDS011;51794;52.758;55.792;2023-02-11T06:47:30;9.68;;;4.50;;
65210;SDS011;51794;52.758;55.792;2023-02-11T06:49:56;9.85;;;4.55;;
65210;SDS011;51794;52.758;55.792;2023-02-11T06:52:22;8.05;;;4.50;;
65210;SDS011;51794;52.758;55.792;2023-02-11T06:54:48;9.95;;;4.28;;
65210;SDS011;51794;52.758;55.792;2023-02-11T06:57:13;11.13;;;5.60;;
65210;SDS011;51794;52.758;55.792;2023-02-11T06:59:39;11.82;;;5.50;;
65210;SDS011;51794;52.758;55.792;2023-02-11T07:02:07;13.05;;;5.70;;
65210;SDS011;51794;52.758;55.792;2023-02-11T07:04:34;10.00;;;5.30;;
65210;SDS011;51794;52.758;55.792;2023-02-11T07:07:00;9.75;;;5.50;;
65210;SDS011;51794;52.758;55.792;2023-02-11T07:09:26;10.32;;;6.00;;
65210;SDS011;51794;52.758;55.792;2023-02-11T07:11:52;15.00;;;6.25;;
65210;SDS011;51794;52.758;55.792;2023-02-11T07:14:18;10.52;;;6.03;;
65210;SDS011;51794;52.758;55.792;2023-02-11T07:16:44;10.25;;;5.80;;
65210;SDS011;51794;52.758;55.792;2023-02-11T07:19:10;9.45;;;5.55;;
65210;SDS011;51794;52.758;55.792;2023-02-11T07:21:35;11.55;;;5.68;;
65210;SDS011;51794;52.758;55.792;2023-02-11T07:24:04;10.90;;;6.00;;
65210;SDS011;51794;52.758;55.792;2023-02-11T07:26:31;10.32;;;5.68;;
65210;SDS011;51794;52.758;55.792;2023-02-11T07:28:57;10.50;;;5.80;;
65210;SDS011;51794;52.758;55.792;2023-02-11T07:31:24;10.60;;;6.47;;
65210;SDS011;51794;52.758;55.792;2023-02-11T07:33:52;11.65;;;6.30;;
65210;SDS011;51794;52.758;55.792;2023-02-11T07:36:19;10.10;;;5.95;;
65210;SDS011;51794;52.758;55.792;2023-02-11T07:38:46;11.20;;;5.68;;
65210;SDS011;51794;52.758;55.792;2023-02-11T07:41:13;11.90;;;6.28;;
65210;SDS011;51794;52.758;55.792;2023-02-11T07:43:41;11.50;;;5.88;;
65210;SDS011;51794;52.758;55.792;2023-02-11T07:46:09;13.45;;;7.00;;
65210;SDS011;51794;52.758;55.792;2023-02-11T07:48:38;12.82;;;6.40;;
65210;SDS011;51794;52.758;55.792;2023-02-11T07:51:11;10.93;;;5.82;;
65210;SDS011;51794;52.758;55.792;2023-02-11T07:53:39;12.50;;;7.40;;
65210;SDS011;51794;52.758;55.792;2023-02-11T07:56:06;12.90;;;6.30;;
65210;SDS011;51794;52.758;55.792;2023-02-11T07:58:33;13.65;;;7.28;;
65210;SDS011;51794;52.758;55.792;2023-02-11T08:01:02;14.88;;;7.03;;
65210;SDS011;51794;52.758;55.792;2023-02-11T08:05:55;9.45;;;5.50;;
65210;SDS011;51794;52.758;55.792;2023-02-11T08:08:21;13.02;;;6.43;;
65210;SDS011;51794;52.758;55.792;2023-02-11T08:10:47;13.38;;;5.85;;
65210;SDS011;51794;52.758;55.792;2023-02-11T08:13:13;14.55;;;6.82;;
65210;SDS011;51794;52.758;55.792;2023-02-11T08:15:39;14.82;;;6.88;;
65210;SDS011;51794;52.758;55.792;2023-02-11T08:18:04;12.00;;;6.25;;
65210;SDS011;51794;52.758;55.792;2023-02-11T08:20:30;12.82;;;6.85;;
65210;SDS011;51794;52.758;55.792;2023-02-11T08:22:56;14.55;;;7.03;;
65210;SDS011;51794;52.758;55.792;2023-02-11T08:25:22;13.63;;;6.78;;
65210;SDS011;51794;52.758;55.792;2023-02-11T08:27:48;12.50;;;6.32;;
65210;SDS011;51794;52.758;55.792;2023-02-11T08:30:14;11.10;;;6.03;;
65210;SDS011;51794;52.758;55.792;2023-02-11T08:32:40;12.90;;;6.45;;
65210;SDS011;51794;52.758;55.792;2023-02-11T08:35:06;12.77;;;6.97;;
65210;SDS011;51794;52.758;55.792;2023-02-11T08:37:33;12.93;;;7.00;;
65210;SDS011;51794;52.758;55.792;2023-02-11T08:39:59;13.23;;;5.95;;
65210;SDS011;51794;52.758;55.792;2023-02-11T08:42:24;10.02;;;5.30;;
65210;SDS011;51794;52.758;55.792;2023-02-11T08:44:50;14.10;;;7.75;;
65210;SDS011;51794;52.758;55.792;2023-02-11T08:47:16;11.27;;;6.03;;
65210;SDS011;51794;52.758;55.792;2023-02-11T08:49:42;13.10;;;6.55;;
65210;SDS011;51794;52.758;55.792;2023-02-11T08:52:08;11.40;;;5.90;;
65210;SDS011;51794;52.758;55.792;2023-02-11T08:54:34;12.32;;;6.68;;
65210;SDS011;51794;52.758;55.792;2023-02-11T08:57:01;13.90;;;7.45;;
65210;SDS011;51794;52.758;55.792;2023-02-11T08:59:28;12.13;;;7.10;;
65210;SDS011;51794;52.758;55.792;2023-02-11T09:01:54;13.27;;;6.82;;
65210;SDS011;51794;52.758;55.792;2023-02-11T09:04:20;12.70;;;6.47;;
65210;SDS011;51794;52.758;55.792;2023-02-11T09:06:46;11.95;;;5.97;;
65210;SDS011;51794;52.758;55.792;2023-02-11T09:09:13;13.55;;;7.13;;
65210;SDS011;51794;52.758;55.792;2023-02-11T09:11:40;13.57;;;6.68;;
65210;SDS011;51794;52.758;55.792;2023-02-11T09:14:07;14.32;;;6.82;;
65210;SDS011;51794;52.758;55.792;2023-02-11T09:16:39;14.68;;;7.50;;
65210;SDS011;51794;52.758;55.792;2023-02-11T09:19:05;14.52;;;7.57;;
65210;SDS011;51794;52.758;55.792;2023-02-11T09:21:31;13.27;;;7.00;;
65210;SDS011;51794;52.758;55.792;2023-02-11T09:23:57;12.50;;;6.57;;
65210;SDS011;51794;52.758;55.792;2023-02-11T09:26:25;11.48;;;6.50;;
65210;SDS011;51794;52.758;55.792;2023-02-11T09:28:53;10.57;;;6.35;;
65210;SDS011;51794;52.758;55.792;2023-02-11T09:31:20;12.43;;;7.05;;
65210;SDS011;51794;52.758;55.792;2023-02-11T09:33:49;12.13;;;6.60;;
65210;SDS011;51794;52.758;55.792;2023-02-11T09:36:20;14.25;;;7.07;;
65210;SDS011;51794;52.758;55.792;2023-02-11T09:38:48;12.88;;;6.88;;
65210;SDS011;51794;52.758;55.792;2023-02-11T09:44:24;14.50;;;7.30;;
65210;SDS011;51794;52.758;55.792;2023-02-11T09:46:57;14.30;;;7.70;;
65210;SDS011;51794;52.758;55.792;2023-02-11T09:49:45;10.82;;;6.38;;
65210;SDS011;51794;52.758;55.792;2023-02-11T09:52:20;9.98;;;4.97;;
65210;SDS011;51794;52.758;55.792;2023-02-11T09:57:23;13.95;;;7.10;;
65210;SDS011;51794;52.758;55.792;2023-02-11T09:59:54;12.63;;;6.80;;
65210;SDS011;51794;52.758;55.792;2023-02-11T10:11:05;12.10;;;6.80;;
65210;SDS011;51794;52.758;55.792;2023-02-11T10:23:59;14.75;;;8.32;;
65210;SDS011;51794;52.758;55.792;2023-02-11T10:28:55;13.13;;;6.95;;
65210;SDS011;51794;52.758;55.792;2023-02-11T10:31:27;13.60;;;8.30;;
65210;SDS011;51794;52.758;55.792;2023-02-11T10:34:05;12.52;;;6.63;;
65210;SDS011;51794;52.758;55.792;2023-02-11T10:36:36;12.38;;;6.85;;
65210;SDS011;51794;52.758;55.792;2023-02-11T10:41:37;9.65;;;5.72;;
65210;SDS011;51794;52.758;55.792;2023-02-11T10:44:07;13.48;;;7.05;;
65210;SDS011;51794;52.758;55.792;2023-02-11T10:46:40;15.07;;;8.75;;
65210;SDS011;51794;52.758;55.792;2023-02-11T10:49:07;12.02;;;7.53;;
65210;SDS011;51794;52.758;55.792;2023-02-11T10:51:33;10.55;;;6.05;;
65210;SDS011;51794;52.758;55.792;2023-02-11T10:56:36;11.73;;;6.90;;
65210;SDS011;51794;52.758;55.792;2023-02-11T10:59:06;10.82;;;6.15;;
65210;SDS011;51794;52.758;55.792;2023-02-11T11:01:56;12.07;;;6.00;;
65210;SDS011;51794;52.758;55.792;2023-02-11T11:04:43;11.45;;;5.70;;
65210;SDS011;51794;52.758;55.792;2023-02-11T11:09:53;11.00;;;5.68;;
65210;SDS011;51794;52.758;55.792;2023-02-11T11:12:31;12.38;;;6.25;;
65210;SDS011;51794;52.758;55.792;2023-02-11T11:15:41;11.45;;;5.90;;
65210;SDS011;51794;52.758;55.792;2023-02-11T11:17:52;11.20;;;5.75;;
65210;SDS011;51794;52.758;55.792;2023-02-11T11:20:35;11.82;;;5.90;;
65210;SDS011;51794;52.758;55.792;2023-02-11T11:23:16;10.48;;;6.05;;
65210;SDS011;51794;52.758;55.792;2023-02-11T11:25:57;13.85;;;6.93;;
65210;SDS011;51794;52.758;55.792;2023-02-11T11:28:36;14.05;;;7.32;;
65210;SDS011;51794;52.758;55.792;2023-02-11T11:31:10;11.60;;;6.00;;
65210;SDS011;51794;52.758;55.792;2023-02-11T11:33:40;10.18;;;5.70;;
65210;SDS011;51794;52.758;55.792;2023-02-11T11:36:16;10.43;;;5.30;;
65210;SDS011;51794;52.758;55.792;2023-02-11T11:38:51;12.40;;;5.85;;
65210;SDS011;51794;52.758;55.792;2023-02-11T11:41:23;11.57;;;6.25;;
65210;SDS011;51794;52.758;55.792;2023-02-11T11:46:28;10.13;;;5.50;;
65210;SDS011;51794;52.758;55.792;2023-02-11T11:49:02;9.77;;;5.45;;
65210;SDS011;51794;52.758;55.792;2023-02-11T11:51:40;10.73;;;6.38;;
65210;SDS011;51794;52.758;55.792;2023-02-11T11:54:11;10.88;;;5.28;;
65210;SDS011;51794;52.758;55.792;2023-02-11T11:56:49;10.18;;;5.63;;
65210;SDS011;51794;52.758;55.792;2023-02-11T12:01:54;8.75;;;5.22;;
65210;SDS011;51794;52.758;55.792;2023-02-11T12:07:10;7.97;;;5.38;;
65210;SDS011;51794;52.758;55.792;2023-02-11T12:18:53;11.95;;;6.00;;
65210;SDS011;51794;52.758;55.792;2023-02-11T12:24:12;11.73;;;6.55;;
65210;SDS011;51794;52.758;55.792;2023-02-11T12:27:22;10.73;;;6.38;;
65210;SDS011;51794;52.758;55.792;2023-02-11T12:38:03;12.43;;;6.90;;
65210;SDS011;51794;52.758;55.792;2023-02-11T12:43:37;13.00;;;7.40;;
65210;SDS011;51794;52.758;55.792;2023-02-11T13:00:27;11.07;;;5.70;;
65210;SDS011;51794;52.758;55.792;2023-02-11T13:05:56;14.30;;;8.18;;
65210;SDS011;51794;52.758;55.792;2023-02-11T13:08:26;10.50;;;5.60;;
65210;SDS011;51794;52.758;55.792;2023-02-11T13:11:16;12.60;;;6.38;;
65210;SDS011;51794;52.758;55.792;2023-02-11T13:16:23;13.63;;;7.63;;
65210;SDS011;51794;52.758;55.792;2023-02-11T13:37:57;11.07;;;5.82;;
65210;SDS011;51794;52.758;55.792;2023-02-11T13:40:42;9.93;;;5.78;;
65210;SDS011;51794;52.758;55.792;2023-02-11T13:43:21;8.65;;;4.60;;
65210;SDS011;51794;52.758;55.792;2023-02-11T13:45:50;9.18;;;4.70;;
65210;SDS011;51794;52.758;55.792;2023-02-11T13:48:23;8.30;;;4.30;;
65210;SDS011;51794;52.758;55.792;2023-02-11T13:50:55;10.65;;;6.25;;
65210;SDS011;51794;52.758;55.792;2023-02-11T13:53:25;9.77;;;5.28;;
65210;SDS011;51794;52.758;55.792;2023-02-11T13:55:53;10.25;;;4.57;;
65210;SDS011;51794;52.758;55.792;2023-02-11T13:58:34;10.85;;;6.13;;
65210;SDS011;51794;52.758;55.792;2023-02-11T14:03:34;11.30;;;5.47;;
65210;SDS011;51794;52.758;55.792;2023-02-11T14:06:21;10.15;;;5.47;;
65210;SDS011;51794;52.758;55.792;2023-02-11T14:19:44;9.15;;;4.57;;
65210;SDS011;51794;52.758;55.792;2023-02-11T14:24:53;11.50;;;6.00;;
65210;SDS011;51794;52.758;55.792;2023-02-11T14:30:09;9.43;;;4.75;;
65210;SDS011;51794;52.758;55.792;2023-02-11T14:43:16;8.68;;;4.88;;
65210;SDS011;51794;52.758;55.792;2023-02-11T14:45:48;7.05;;;3.67;;
65210;SDS011;51794;52.758;55.792;2023-02-11T14:48:18;8.93;;;5.07;;
65210;SDS011;51794;52.758;55.792;2023-02-11T14:50:47;9.70;;;5.15;;
65210;SDS011;51794;52.758;55.792;2023-02-11T14:53:17;9.35;;;5.88;;
65210;SDS011;51794;52.758;55.792;2023-02-11T14:55:47;10.65;;;6.05;;
65210;SDS011;51794;52.758;55.792;2023-02-11T14:58:25;8.00;;;4.82;;
65210;SDS011;51794;52.758;55.792;2023-02-11T15:01:03;8.70;;;5.47;;
65210;SDS011;51794;52.758;55.792;2023-02-11T15:03:38;7.85;;;5.07;;
65210;SDS011;51794;52.758;55.792;2023-02-11T15:06:07;5.75;;;3.80;;
65210;SDS011;51794;52.758;55.792;2023-02-11T15:08:47;8.05;;;4.43;;
65210;SDS011;51794;52.758;55.792;2023-02-11T15:11:14;11.05;;;6.60;;
65210;SDS011;51794;52.758;55.792;2023-02-11T15:13:42;3.35;;;1.83;;
65210;SDS011;51794;52.758;55.792;2023-02-11T15:16:12;8.60;;;5.82;;
65210;SDS011;51794;52.758;55.792;2023-02-11T15:18:44;7.90;;;4.63;;
65210;SDS011;51794;52.758;55.792;2023-02-11T15:21:18;7.60;;;4.47;;
65210;SDS011;51794;52.758;55.792;2023-02-11T15:23:59;9.77;;;5.47;;
65210;SDS011;51794;52.758;55.792;2023-02-11T15:26:26;10.85;;;6.10;;
65210;SDS011;51794;52.758;55.792;2023-02-11T15:28:53;8.73;;;5.35;;
65210;SDS011;51794;52.758;55.792;2023-02-11T15:31:21;7.80;;;4.90;;
65210;SDS011;51794;52.758;55.792;2023-02-11T15:33:49;7.13;;;4.68;;
65210;SDS011;51794;52.758;55.792;2023-02-11T15:36:16;9.63;;;5.65;;
65210;SDS011;51794;52.758;55.792;2023-02-11T15:38:44;6.10;;;4.13;;
65210;SDS011;51794;52.758;55.792;2023-02-11T15:44:02;9.27;;;4.65;;
65210;SDS011;51794;52.758;55.792;2023-02-11T15:46:35;8.70;;;5.57;;
65210;SDS011;51794;52.758;55.792;2023-02-11T15:49:02;8.77;;;4.68;;
65210;SDS011;51794;52.758;55.792;2023-02-11T15:51:31;8.43;;;5.10;;
65210;SDS011;51794;52.758;55.792;2023-02-11T15:54:04;4.00;;;2.22;;
65210;SDS011;51794;52.758;55.792;2023-02-11T15:56:41;9.27;;;4.45;;
65210;SDS011;51794;52.758;55.792;2023-02-11T16:01:41;10.25;;;5.20;;
65210;SDS011;51794;52.758;55.792;2023-02-11T16:04:13;7.85;;;3.88;;
65210;SDS011;51794;52.758;55.792;2023-02-11T16:06:42;8.27;;;4.60;;
65210;SDS011;51794;52.758;55.792;2023-02-11T16:14:22;10.45;;;5.55;;
65210;SDS011;51794;52.758;55.792;2023-02-11T16:19:49;5.00;;;3.00;;
65210;SDS011;51794;52.758;55.792;2023-02-11T16:22:25;12.55;;;6.15;;
65210;SDS011;51794;52.758;55.792;2023-02-11T16:24:54;10.45;;;4.50;;
65210;SDS011;51794;52.758;55.792;2023-02-11T16:27:26;3.05;;;2.03;;
65210;SDS011;51794;52.758;55.792;2023-02-11T16:30:04;9.25;;;5.60;;
65210;SDS011;51794;52.758;55.792;2023-02-11T16:32:42;9.20;;;5.32;;
65210;SDS011;51794;52.758;55.792;2023-02-11T16:35:09;4.70;;;2.60;;
65210;SDS011;51794;52.758;55.792;2023-02-11T16:37:36;9.55;;;5.10;;
65210;SDS011;51794;52.758;55.792;2023-02-11T16:40:02;12.23;;;6.55;;
65210;SDS011;51794;52.758;55.792;2023-02-11T16:42:29;13.63;;;6.70;;
65210;SDS011;51794;52.758;55.792;2023-02-11T16:44:55;12.73;;;6.50;;
65210;SDS011;51794;52.758;55.792;2023-02-11T16:47:22;12.15;;;6.47;;
65210;SDS011;51794;52.758;55.792;2023-02-11T16:49:51;12.82;;;7.38;;
65210;SDS011;51794;52.758;55.792;2023-02-11T16:52:17;11.15;;;5.47;;
65210;SDS011;51794;52.758;55.792;2023-02-11T16:54:45;10.38;;;6.35;;
65210;SDS011;51794;52.758;55.792;2023-02-11T16:57:16;12.25;;;6.28;;
65210;SDS011;51794;52.758;55.792;2023-02-11T16:59:44;12.95;;;6.88;;
65210;SDS011;51794;52.758;55.792;2023-02-11T17:02:15;12.82;;;5.95;;
65210;SDS011;51794;52.758;55.792;2023-02-11T17:04:44;9.98;;;5.03;;
65210;SDS011;51794;52.758;55.792;2023-02-11T17:07:11;12.50;;;6.38;;
65210;SDS011;51794;52.758;55.792;2023-02-11T17:09:37;8.13;;;4.70;;
65210;SDS011;51794;52.758;55.792;2023-02-11T17:12:03;13.40;;;6.45;;
65210;SDS011;51794;52.758;55.792;2023-02-11T17:14:29;13.13;;;6.60;;
65210;SDS011;51794;52.758;55.792;2023-02-11T17:16:55;13.60;;;7.80;;
65210;SDS011;51794;52.758;55.792;2023-02-11T17:19:21;12.27;;;6.50;;
65210;SDS011;51794;52.758;55.792;2023-02-11T17:21:48;8.75;;;4.90;;
65210;SDS011;51794;52.758;55.792;2023-02-11T17:24:16;9.10;;;4.72;;
65210;SDS011;51794;52.758;55.792;2023-02-11T17:26:43;10.88;;;5.28;;
65210;SDS011;51794;52.758;55.792;2023-02-11T17:29:10;11.73;;;5.97;;
65210;SDS011;51794;52.758;55.792;2023-02-11T17:31:38;11.45;;;7.07;;
65210;SDS011;51794;52.758;55.792;2023-02-11T17:34:05;11.88;;;5.68;;
65210;SDS011;51794;52.758;55.792;2023-02-11T17:36:31;12.93;;;7.25;;
65210;SDS011;51794;52.758;55.792;2023-02-11T17:39:00;11.27;;;6.55;;